Time;durP1;ratioP1;P1;durP2;ratioP2;P2;SDS_P1;SDS_P2;PMS_P1;PMS_P2;Temp;Humidity;BMP_temperature;BMP_pressure;BME280_temperature;BME280_humidity;BME280_pressure;Samples;Min_cycle;Max_cycle;Signal;HPM_P1;HPM_P2
2022/10/02 00:00:03;;;;;;;25.38;4.38;;;13.90;99.90;;;;;;5035343;28;20049;-72
2022/10/02 00:02:49;;;;;;;31.80;4.32;;;13.80;99.90;;;;;;5032952;28;20068;-72
2022/10/02 00:05:28;;;;;;;28.50;4.05;;;13.80;99.90;;;;;;5034909;28;20472;-72
2022/10/02 00:08:06;;;;;;;43.70;4.55;;;13.80;99.90;;;;;;5034112;28;20364;-72
2022/10/02 00:10:37;;;;;;;;;;;13.80;99.90;;;;;;5018400;28;20057;-72
2022/10/02 00:13:11;;;;;;;29.42;3.83;;;13.80;99.90;;;;;;5034845;28;19928;-72
2022/10/02 00:15:41;;;;;;;38.10;4.43;;;13.80;99.90;;;;;;5016373;28;20364;-72
2022/10/02 00:18:19;;;;;;;24.23;4.20;;;13.70;99.90;;;;;;5017349;28;20056;-73
2022/10/02 00:21:04;;;;;;;36.97;4.18;;;13.70;99.90;;;;;;5034177;28;20060;-72
2022/10/02 00:23:45;;;;;;;32.72;4.45;;;13.70;99.90;;;;;;5034581;28;20057;-72
2022/10/02 00:26:51;;;;;;;35.20;4.45;;;14.00;99.90;;;;;;5017433;28;20064;-72
2022/10/02 00:29:40;;;;;;;31.30;4.37;;;13.70;99.90;;;;;;5022775;28;20064;-73
2022/10/02 00:32:25;;;;;;;32.05;4.32;;;13.60;99.90;;;;;;5034524;28;20054;-72
2022/10/02 00:35:18;;;;;;;26.83;4.00;;;13.70;99.90;;;;;;5033642;28;20060;-72
2022/10/02 00:38:16;;;;;;;34.47;4.30;;;13.60;99.90;;;;;;5034622;28;20045;-72
2022/10/02 00:41:10;;;;;;;34.42;4.55;;;13.60;99.90;;;;;;5016366;28;20054;-72
2022/10/02 00:44:15;;;;;;;38.00;4.80;;;13.60;99.90;;;;;;5035042;28;20060;-72
2022/10/02 00:46:48;;;;;;;28.75;4.32;;;13.60;99.90;;;;;;5034547;28;20053;-72
2022/10/02 00:49:28;;;;;;;32.55;4.22;;;13.60;99.90;;;;;;5016052;28;20056;-73
2022/10/02 00:52:21;;;;;;;34.63;4.43;;;13.60;99.90;;;;;;5017287;28;20049;-72
2022/10/02 00:54:54;;;;;;;38.53;4.22;;;13.60;99.90;;;;;;5018967;28;20488;-72
2022/10/02 00:57:46;;;;;;;38.40;4.18;;;13.60;99.90;;;;;;5021132;28;20068;-72
2022/10/02 01:00:16;;;;;;;36.42;4.03;;;13.60;99.90;;;;;;5038153;28;20056;-72
2022/10/02 01:03:22;;;;;;;32.47;3.95;;;13.60;99.90;;;;;;5037204;28;20497;-72
2022/10/02 01:05:50;;;;;;;32.83;4.68;;;13.60;99.90;;;;;;5020953;28;20046;-72
2022/10/02 01:08:18;;;;;;;40.78;4.65;;;13.50;99.90;;;;;;5019862;28;20061;-72
2022/10/02 01:10:46;;;;;;;31.42;4.00;;;13.50;99.90;;;;;;5037958;28;20041;-72
2022/10/02 01:13:14;;;;;;;26.92;3.45;;;13.50;99.90;;;;;;5038476;28;20060;-72
2022/10/02 01:15:54;;;;;;;;;;;13.50;99.90;;;;;;5037409;28;20056;-72
2022/10/02 01:18:22;;;;;;;29.63;4.07;;;13.50;99.90;;;;;;5037731;28;20383;-72
2022/10/02 01:20:53;;;;;;;27.13;4.03;;;13.50;99.90;;;;;;5036784;28;20045;-72
2022/10/02 01:23:36;;;;;;;29.05;4.15;;;13.50;99.90;;;;;;5037876;28;20041;-72
2022/10/02 01:26:03;;;;;;;29.25;3.85;;;13.50;99.90;;;;;;5038084;28;20045;-72
2022/10/02 01:28:31;;;;;;;34.60;4.13;;;13.50;99.90;;;;;;5036754;28;20045;-71
2022/10/02 01:31:06;;;;;;;31.38;4.28;;;13.50;99.90;;;;;;5003961;28;20380;-72
2022/10/02 01:33:34;;;;;;;35.65;4.75;;;13.50;99.90;;;;;;5038275;28;20082;-72
2022/10/02 01:36:02;;;;;;;29.38;4.10;;;13.50;99.90;;;;;;5036675;28;20052;-72
2022/10/02 01:38:30;;;;;;;;;;;13.50;99.90;;;;;;5037052;28;20053;-72
2022/10/02 01:40:57;;;;;;;37.35;4.22;;;13.50;99.90;;;;;;5036393;28;19921;-72
2022/10/02 01:43:34;;;;;;;32.30;4.53;;;13.50;99.90;;;;;;5019973;28;20060;-72
2022/10/02 01:46:28;;;;;;;30.50;4.18;;;13.50;99.90;;;;;;5037865;28;20049;-73
2022/10/02 01:49:18;;;;;;;30.58;4.00;;;13.50;99.90;;;;;;5036375;28;20038;-72
2022/10/02 01:51:51;;;;;;;32.33;4.18;;;13.40;99.90;;;;;;5037247;28;20045;-72
2022/10/02 01:54:37;;;;;;;31.52;4.35;;;13.40;99.90;;;;;;5036156;28;20053;-73
2022/10/02 01:57:16;;;;;;;31.63;4.18;;;13.50;99.90;;;;;;5037424;28;20049;-72
2022/10/02 01:59:59;;;;;;;24.92;4.05;;;13.50;99.90;;;;;;5037242;28;20049;-73
2022/10/02 02:02:35;;;;;;;29.70;4.32;;;13.40;99.90;;;;;;5019052;28;20059;-72
2022/10/02 02:05:37;;;;;;;40.22;4.72;;;13.40;99.90;;;;;;5017409;28;20053;-72
2022/10/02 02:08:15;;;;;;;28.20;3.90;;;13.40;99.90;;;;;;5054968;28;20041;-72
2022/10/02 02:10:43;;;;;;;;;;;13.40;99.90;;;;;;5058047;28;20056;-73
2022/10/02 02:13:48;;;;;;;30.42;3.80;;;13.40;99.90;;;;;;5056823;28;19921;-72
2022/10/02 02:16:21;;;;;;;30.30;3.80;;;13.40;99.90;;;;;;5055000;28;20044;-72
2022/10/02 02:19:07;;;;;;;30.40;4.20;;;13.40;99.90;;;;;;5056733;28;20049;-72
2022/10/02 02:21:45;;;;;;;29.13;3.47;;;13.40;99.90;;;;;;5056073;28;20482;-72
2022/10/02 02:24:24;;;;;;;;;;;13.40;99.90;;;;;;5057481;28;20064;-72
2022/10/02 02:26:57;;;;;;;28.98;3.78;;;13.40;99.90;;;;;;5056574;28;19932;-72
2022/10/02 02:29:26;;;;;;;28.65;3.40;;;13.40;99.90;;;;;;5055427;28;20463;-72
2022/10/02 02:31:56;;;;;;;30.98;3.95;;;13.40;99.90;;;;;;5056471;28;20387;-72
2022/10/02 02:34:34;;;;;;;25.20;3.78;;;13.40;99.90;;;;;;5055350;28;20064;-72
2022/10/02 02:37:05;;;;;;;27.63;3.80;;;13.40;99.90;;;;;;5055926;28;20049;-72
2022/10/02 02:39:45;;;;;;;28.83;3.85;;;13.40;99.90;;;;;;5055354;28;20045;-72
2022/10/02 02:42:14;;;;;;;22.58;3.65;;;13.40;99.90;;;;;;5038196;28;20041;-72
2022/10/02 02:44:54;;;;;;;27.35;3.83;;;13.40;99.90;;;;;;5039423;28;20040;-72
2022/10/02 02:47:31;;;;;;;23.67;3.83;;;13.40;99.90;;;;;;5055063;28;20379;-72
2022/10/02 02:50:15;;;;;;;25.60;3.50;;;13.40;99.90;;;;;;5055227;28;20049;-72
2022/10/02 02:52:46;;;;;;;21.92;3.45;;;13.40;99.90;;;;;;5055463;28;20063;-72
2022/10/02 02:55:46;;;;;;;22.55;3.33;;;13.40;99.90;;;;;;5054509;28;20045;-72
2022/10/02 02:58:21;;;;;;;26.13;3.55;;;13.40;99.90;;;;;;5056056;28;20049;-72
2022/10/02 03:00:48;;;;;;;22.50;3.25;;;13.40;99.90;;;;;;5054586;28;20064;-72
2022/10/02 03:03:16;;;;;;;23.77;3.60;;;13.40;99.90;;;;;;5053036;28;20043;-71
2022/10/02 03:05:52;;;;;;;17.42;3.42;;;13.40;99.90;;;;;;5036377;28;20046;-72
2022/10/02 03:08:32;;;;;;;23.13;3.63;;;13.40;99.90;;;;;;5035011;28;20388;-72
2022/10/02 03:11:08;;;;;;;27.08;3.40;;;13.40;99.90;;;;;;5035748;28;20056;-72
2022/10/02 03:13:51;;;;;;;26.55;3.67;;;13.40;99.90;;;;;;5035999;28;20376;-72
2022/10/02 03:16:46;;;;;;;28.33;3.33;;;13.40;99.90;;;;;;5034512;28;20053;-72
2022/10/02 03:19:32;;;;;;;25.95;3.50;;;13.40;99.90;;;;;;5035450;28;20064;-72
2022/10/02 03:22:11;;;;;;;24.10;3.10;;;13.40;99.90;;;;;;5017575;28;20056;-72
2022/10/02 03:24:51;;;;;;;27.50;3.42;;;13.40;99.90;;;;;;5035651;28;20042;-72
2022/10/02 03:27:24;;;;;;;26.38;3.60;;;13.40;99.90;;;;;;5035453;28;20041;-72
2022/10/02 03:30:13;;;;;;;22.48;3.30;;;13.40;99.90;;;;;;5018704;28;20380;-72
2022/10/02 03:32:44;;;;;;;22.05;3.05;;;13.40;99.90;;;;;;5018579;28;20116;-72
2022/10/02 03:35:13;;;;;;;22.42;3.28;;;13.30;99.90;;;;;;5017356;28;20046;-72
2022/10/02 03:37:46;;;;;;;19.95;2.85;;;13.30;99.90;;;;;;5035534;28;20357;-72
2022/10/02 03:40:13;;;;;;;21.02;3.13;;;13.30;99.90;;;;;;5034474;28;20065;-72
2022/10/02 03:42:41;;;;;;;23.45;3.72;;;13.30;99.90;;;;;;5034273;28;20376;-72
2022/10/02 03:45:09;;;;;;;24.50;3.22;;;13.30;99.90;;;;;;5035374;28;20049;-72
2022/10/02 03:47:36;;;;;;;23.25;3.15;;;13.30;99.90;;;;;;5017267;28;20041;-73
2022/10/02 03:50:04;;;;;;;18.40;2.90;;;13.30;99.90;;;;;;5035186;28;20376;-73
2022/10/02 03:52:34;;;;;;;25.00;3.45;;;13.30;99.90;;;;;;5017612;28;20053;-73
2022/10/02 03:55:12;;;;;;;21.90;2.85;;;13.30;99.90;;;;;;5034393;28;20041;-72
2022/10/02 03:57:42;;;;;;;25.88;2.88;;;13.30;99.90;;;;;;5035408;28;20064;-73
2022/10/02 04:00:28;;;;;;;21.75;3.20;;;13.40;99.90;;;;;;5035110;28;20360;-72
2022/10/02 04:02:58;;;;;;;29.00;3.92;;;13.40;99.90;;;;;;5034016;28;20045;-72
2022/10/02 04:05:35;;;;;;;20.90;2.95;;;13.40;99.90;;;;;;5034370;28;20057;-72
2022/10/02 04:08:13;;;;;;;25.42;3.47;;;13.40;99.90;;;;;;5017206;28;20041;-72
2022/10/02 04:10:46;;;;;;;24.60;3.30;;;13.40;99.90;;;;;;5035193;28;20060;-72
2022/10/02 04:13:32;;;;;;;21.63;3.03;;;13.40;99.90;;;;;;5034257;28;20049;-73
2022/10/02 04:16:13;;;;;;;18.92;2.90;;;13.40;99.90;;;;;;5033932;28;20345;-72
2022/10/02 04:18:46;;;;;;;19.75;2.88;;;13.40;99.90;;;;;;5034863;28;20048;-72
2022/10/02 04:21:45;;;;;;;20.35;2.88;;;13.40;99.90;;;;;;5033587;28;20041;-73
2022/10/02 04:24:28;;;;;;;19.00;3.10;;;13.40;99.90;;;;;;5034497;28;20372;-72
2022/10/02 04:27:17;;;;;;;20.23;3.08;;;13.40;99.90;;;;;;5035125;28;20049;-72
2022/10/02 04:29:54;;;;;;;26.65;3.15;;;13.40;99.90;;;;;;5033033;28;20052;-73
2022/10/02 04:32:29;;;;;;;22.33;3.25;;;13.50;99.90;;;;;;5034592;28;20042;-72
2022/10/02 04:35:01;;;;;;;24.52;3.30;;;13.50;99.90;;;;;;5033719;28;20352;-73
2022/10/02 04:37:51;;;;;;;21.30;3.28;;;13.50;99.90;;;;;;5034093;28;20057;-72
2022/10/02 04:40:36;;;;;;;19.63;3.08;;;13.50;99.90;;;;;;5034684;28;20041;-73
2022/10/02 04:43:11;;;;;;;19.70;3.22;;;11.80;99.90;;;;;;5033455;28;20045;-73
2022/10/02 04:45:57;;;;;;;24.08;3.00;;;13.50;99.90;;;;;;5034826;28;20360;-73
2022/10/02 04:48:47;;;;;;;17.98;2.80;;;13.40;99.90;;;;;;5032570;28;20053;-73
2022/10/02 04:51:35;;;;;;;23.30;2.83;;;13.50;99.90;;;;;;5034475;28;20460;-72
2022/10/02 04:54:32;;;;;;;22.75;3.60;;;13.50;99.90;;;;;;5033222;28;20061;-73
2022/10/02 04:57:27;;;;;;;20.90;2.80;;;13.30;99.90;;;;;;5016390;28;20056;-73
2022/10/02 04:59:57;;;;;;;22.60;3.13;;;13.50;99.90;;;;;;5034755;28;20057;-73
2022/10/02 05:02:35;;;;;;;26.52;2.83;;;13.50;99.90;;;;;;5032665;28;20052;-72
2022/10/02 05:05:24;;;;;;;26.95;3.33;;;13.50;99.90;;;;;;5034329;28;20372;-72
2022/10/02 05:08:03;;;;;;;25.02;3.38;;;13.50;99.90;;;;;;4999836;28;20042;-72
2022/10/02 05:10:44;;;;;;;27.58;3.22;;;13.50;99.90;;;;;;5016785;28;20049;-72
2022/10/02 05:13:56;;;;;;;23.48;3.08;;;13.50;99.90;;;;;;5034607;28;20372;-72
2022/10/02 05:17:01;;;;;;;20.85;2.97;;;13.50;99.90;;;;;;4980333;28;20400;-72
2022/10/02 05:19:48;;;;;;;19.20;2.90;;;13.50;99.90;;;;;;5034433;28;20068;-72
2022/10/02 05:22:48;;;;;;;22.23;3.13;;;13.40;99.90;;;;;;5033086;28;20042;-72
2022/10/02 05:25:57;;;;;;;23.00;2.92;;;13.50;99.90;;;;;;5034213;28;20046;-72
2022/10/02 05:28:42;;;;;;;20.50;2.83;;;13.50;99.90;;;;;;5015835;28;20048;-72
2022/10/02 05:31:36;;;;;;;19.13;3.08;;;13.50;99.90;;;;;;5034360;28;20054;-73
2022/10/02 05:34:26;;;;;;;21.13;2.88;;;13.50;99.90;;;;;;5032940;28;20050;-72
2022/10/02 05:37:34;;;;;;;20.48;2.90;;;13.50;99.90;;;;;;5034611;28;20052;-72
2022/10/02 05:40:29;;;;;;;27.77;3.50;;;13.40;99.90;;;;;;4954373;28;20055;-72
2022/10/02 05:43:31;;;;;;;21.33;3.00;;;13.40;99.90;;;;;;4956556;29;20056;-72
2022/10/02 05:46:13;;;;;;;19.85;2.88;;;13.40;99.90;;;;;;5026971;28;20460;-73
2022/10/02 05:48:48;;;;;;;21.60;2.97;;;13.40;99.90;;;;;;5019373;28;20048;-72
2022/10/02 05:51:31;;;;;;;21.58;2.95;;;13.70;99.90;;;;;;5037282;28;20048;-72
2022/10/02 05:54:07;;;;;;;20.75;2.90;;;13.40;99.90;;;;;;5037812;28;20041;-72
2022/10/02 05:56:41;;;;;;;22.45;3.08;;;13.30;99.90;;;;;;5037688;28;20049;-73
2022/10/02 05:59:39;;;;;;;21.38;3.25;;;13.40;99.90;;;;;;5037328;28;20049;-73
2022/10/02 06:02:32;;;;;;;18.17;2.88;;;13.30;99.90;;;;;;5018854;28;20052;-73
2022/10/02 06:05:20;;;;;;;21.33;3.30;;;13.40;99.90;;;;;;5036986;28;20124;-72
2022/10/02 06:07:58;;;;;;;24.77;3.33;;;13.40;99.90;;;;;;5035884;28;20045;-72
2022/10/02 06:10:30;;;;;;;22.95;3.00;;;13.40;99.90;;;;;;5037616;28;20048;-72
2022/10/02 06:13:19;;;;;;;30.15;3.10;;;13.40;99.90;;;;;;5037346;28;20042;-72
2022/10/02 06:16:11;;;;;;;25.38;3.40;;;13.30;99.90;;;;;;5035996;28;20494;-72
2022/10/02 06:18:42;;;;;;;22.80;3.55;;;13.40;99.90;;;;;;5020255;28;20057;-73
2022/10/02 06:21:36;;;;;;;21.80;3.28;;;13.40;99.90;;;;;;5018624;28;20041;-74
2022/10/02 06:24:11;;;;;;;23.20;3.55;;;13.40;99.90;;;;;;5037054;28;20045;-74
2022/10/02 06:26:38;;;;;;;22.05;3.33;;;13.40;99.90;;;;;;5036962;28;20383;-73
2022/10/02 06:29:15;;;;;;;24.92;3.53;;;13.70;99.90;;;;;;5035642;28;20045;-74
2022/10/02 06:32:07;;;;;;;22.92;3.00;;;12.90;99.90;;;;;;5037108;28;20053;-73
2022/10/02 06:34:35;;;;;;;27.35;3.45;;;13.50;99.90;;;;;;5035475;28;20357;-72
2022/10/02 06:37:10;;;;;;;22.90;3.40;;;13.50;99.90;;;;;;5035746;28;20507;-72
2022/10/02 06:40:12;;;;;;;28.63;2.95;;;13.50;99.90;;;;;;5036659;28;20057;-72
2022/10/02 06:42:51;;;;;;;23.23;3.33;;;13.50;99.90;;;;;;5035305;28;20049;-72
2022/10/02 06:45:26;;;;;;;19.10;3.28;;;13.50;99.90;;;;;;5036379;28;20045;-72
2022/10/02 06:48:00;;;;;;;17.13;2.83;;;13.50;99.90;;;;;;5018540;28;20056;-72
2022/10/02 06:50:48;;;;;;;20.13;2.88;;;13.60;99.90;;;;;;5036980;28;20044;-72
2022/10/02 06:53:35;;;;;;;18.00;3.20;;;13.60;99.90;;;;;;5019037;28;20045;-72
2022/10/02 06:56:26;;;;;;;24.05;3.50;;;13.60;99.90;;;;;;5034992;28;20060;-72
2022/10/02 06:59:21;;;;;;;25.88;3.85;;;13.60;99.90;;;;;;5036482;28;20045;-71
2022/10/02 07:02:00;;;;;;;23.92;3.35;;;13.60;99.90;;;;;;5017751;28;20053;-72
2022/10/02 07:04:41;;;;;;;22.77;3.05;;;13.60;99.90;;;;;;5036094;28;20491;-72
2022/10/02 07:07:30;;;;;;;27.38;3.85;;;13.60;99.90;;;;;;5036322;28;20050;-72
2022/10/02 07:10:28;;;;;;;26.80;3.78;;;13.60;99.90;;;;;;5036254;28;20049;-72
2022/10/02 07:13:34;;;;;;;22.90;3.65;;;13.60;99.90;;;;;;5019054;28;20460;-72
2022/10/02 07:16:13;;;;;;;26.10;3.25;;;13.60;99.90;;;;;;5017516;28;20361;-73
2022/10/02 07:19:02;;;;;;;21.80;3.20;;;13.60;99.90;;;;;;5018260;28;20053;-72
2022/10/02 07:21:46;;;;;;;25.83;3.78;;;13.60;99.90;;;;;;5017881;28;20061;-72
2022/10/02 07:24:36;;;;;;;26.02;3.95;;;13.60;99.90;;;;;;5035943;28;20049;-72
2022/10/02 07:27:25;;;;;;;23.52;3.97;;;13.60;99.90;;;;;;5035657;28;20046;-72
2022/10/02 07:30:08;;;;;;;24.77;3.20;;;13.60;99.90;;;;;;5036094;28;20042;-71
2022/10/02 07:32:51;;;;;;;21.95;3.47;;;13.60;99.90;;;;;;5035891;28;20052;-71
2022/10/02 07:36:20;;;;;;;25.05;3.83;;;13.70;99.90;;;;;;5017253;28;20053;-71
2022/10/02 07:39:00;;;;;;;25.00;3.83;;;13.70;99.90;;;;;;4953739;28;20054;-71
2022/10/02 07:42:03;;;;;;;25.85;4.05;;;13.70;99.90;;;;;;5017139;28;20049;-71
2022/10/02 07:45:06;;;;;;;29.02;4.25;;;13.70;99.90;;;;;;5035835;28;20049;-71
2022/10/02 07:48:19;;;;;;;25.70;4.13;;;13.70;99.90;;;;;;5034411;28;20057;-71
2022/10/02 07:54:40;;;;;;;28.00;4.13;;;13.70;99.90;;;;;;5035066;28;20046;-71
2022/10/02 07:57:22;;;;;;;23.90;3.85;;;13.70;99.90;;;;;;4998317;28;20045;-71
2022/10/02 07:59:51;;;;;;;25.83;3.83;;;13.80;99.90;;;;;;5035125;28;20037;-72
2022/10/02 08:02:42;;;;;;;31.15;4.20;;;13.80;99.90;;;;;;4999381;28;20054;-73
2022/10/02 08:05:33;;;;;;;33.95;4.72;;;13.80;99.90;;;;;;5014007;28;20057;-73
2022/10/02 08:08:22;;;;;;;28.73;4.10;;;13.80;99.90;;;;;;4996788;28;20046;-71
2022/10/02 08:11:02;;;;;;;27.98;4.20;;;13.90;99.90;;;;;;4997657;28;20465;-74
2022/10/02 08:13:45;;;;;;;20.65;4.00;;;13.90;99.90;;;;;;5015241;28;20468;-71
2022/10/02 08:16:22;;;;;;;27.33;4.40;;;13.90;99.90;;;;;;4980618;28;20061;-71
2022/10/02 08:18:57;;;;;;;27.60;4.13;;;13.90;99.90;;;;;;5014554;28;20057;-71
2022/10/02 08:21:25;;;;;;;23.70;4.20;;;14.00;99.90;;;;;;5013612;28;20038;-72
2022/10/02 08:24:02;;;;;;;20.00;4.13;;;14.00;99.90;;;;;;5014949;28;20037;-71
2022/10/02 08:26:41;;;;;;;21.83;4.43;;;14.00;99.90;;;;;;5014772;28;20131;-71
2022/10/02 08:29:11;;;;;;;26.05;4.35;;;14.00;99.90;;;;;;4996437;28;20349;-72
2022/10/02 08:31:38;;;;;;;25.52;4.47;;;14.00;99.90;;;;;;5014413;28;20050;-71
2022/10/02 08:34:17;;;;;;;27.77;4.20;;;14.10;99.90;;;;;;4996271;28;20045;-73
2022/10/02 08:36:58;;;;;;;24.27;3.83;;;14.10;99.90;;;;;;5014859;28;20042;-71
2022/10/02 08:39:35;;;;;;;30.30;4.10;;;14.20;99.90;;;;;;5014719;28;20050;-72
2022/10/02 08:42:33;;;;;;;31.02;4.50;;;14.10;99.90;;;;;;5016119;28;20045;-72
2022/10/02 08:45:04;;;;;;;;;;;14.20;99.90;;;;;;5015476;28;20042;-72
2022/10/02 08:47:50;;;;;;;21.60;4.05;;;14.30;99.90;;;;;;4996940;28;19921;-72
2022/10/02 08:50:44;;;;;;;23.65;4.65;;;14.70;99.90;;;;;;5015097;28;20354;-71
2022/10/02 08:53:31;;;;;;;22.25;4.07;;;14.40;99.90;;;;;;5014724;28;20057;-72
2022/10/02 08:56:23;;;;;;;30.53;4.37;;;14.40;99.90;;;;;;5013772;28;20053;-71
2022/10/02 08:59:31;;;;;;;20.63;4.22;;;14.40;99.90;;;;;;4997338;28;20072;-73
2022/10/02 09:02:20;;;;;;;18.63;4.30;;;14.50;99.90;;;;;;4996959;28;20054;-72
2022/10/02 09:05:03;;;;;;;31.40;5.75;;;14.50;99.90;;;;;;5014545;28;20046;-71
2022/10/02 09:07:46;;;;;;;27.10;4.53;;;14.70;99.90;;;;;;5013821;28;20053;-70
2022/10/02 09:10:44;;;;;;;22.05;4.85;;;14.80;99.90;;;;;;5014877;28;20049;-72
2022/10/02 09:13:34;;;;;;;25.08;4.32;;;15.00;99.90;;;;;;4997739;28;20487;-70
2022/10/02 09:16:36;;;;;;;26.92;4.50;;;15.10;99.90;;;;;;5016705;28;20461;-71
2022/10/02 09:19:22;;;;;;;26.40;4.72;;;15.10;99.90;;;;;;5018252;28;20046;-71
2022/10/02 09:21:58;;;;;;;23.02;3.92;;;15.20;99.90;;;;;;5016945;28;20477;-71
2022/10/02 09:25:06;;;;;;;28.88;4.60;;;15.30;99.90;;;;;;4985449;28;20045;-71
2022/10/02 09:27:55;;;;;;;19.10;3.70;;;15.30;99.90;;;;;;5005891;28;20057;-71
2022/10/02 09:30:53;;;;;;;24.35;4.43;;;15.40;99.90;;;;;;5018037;28;20072;-70
2022/10/02 09:33:43;;;;;;;24.92;4.57;;;15.40;99.90;;;;;;5000979;28;20487;-71
2022/10/02 09:36:24;;;;;;;20.70;4.05;;;15.50;99.90;;;;;;5016817;28;20046;-71
2022/10/02 09:39:17;;;;;;;16.00;3.70;;;15.60;99.90;;;;;;5018292;28;20050;-74
2022/10/02 09:42:13;;;;;;;25.77;4.35;;;15.70;99.90;;;;;;5016603;28;20476;-71
2022/10/02 09:45:20;;;;;;;22.77;4.10;;;15.70;99.90;;;;;;5017863;28;20049;-73
2022/10/02 09:48:08;;;;;;;18.58;4.10;;;15.80;99.90;;;;;;4999807;28;20046;-71
2022/10/02 09:51:09;;;;;;;18.55;3.78;;;15.90;99.90;;;;;;5000763;28;20042;-71
2022/10/02 09:53:36;;;;;;;18.50;3.60;;;15.90;99.90;;;;;;5001047;28;20050;-71
2022/10/02 09:56:52;;;;;;;18.25;3.75;;;15.90;99.90;;;;;;5008302;28;20068;-71
2022/10/02 09:59:38;;;;;;;21.40;3.70;;;15.90;99.90;;;;;;4968054;28;20047;-71
2022/10/02 10:02:36;;;;;;;21.92;3.35;;;16.10;99.90;;;;;;5036228;28;20045;-71
2022/10/02 10:05:21;;;;;;;17.40;3.53;;;16.10;99.90;;;;;;5037216;28;20049;-70
2022/10/02 10:07:57;;;;;;;21.83;3.97;;;16.20;99.90;;;;;;5036011;28;20050;-69
2022/10/02 10:10:46;;;;;;;19.08;3.63;;;16.20;99.90;;;;;;5037145;28;20053;-69
2022/10/02 10:13:21;;;;;;;23.33;4.20;;;16.30;99.90;;;;;;5037271;28;20053;-69
2022/10/02 10:15:56;;;;;;;21.58;3.58;;;16.40;99.90;;;;;;5018522;28;20057;-70
2022/10/02 10:18:46;;;;;;;20.30;3.78;;;16.30;99.90;;;;;;5020134;28;20041;-71
2022/10/02 10:21:52;;;;;;;22.80;3.85;;;16.30;99.90;;;;;;5036151;28;20054;-69
2022/10/02 10:24:40;;;;;;;23.10;3.85;;;16.30;99.90;;;;;;5036661;28;20060;-70
2022/10/02 10:27:46;;;;;;;19.60;3.40;;;16.30;99.90;;;;;;5036634;28;20045;-69
2022/10/02 10:30:35;;;;;;;20.60;3.78;;;16.20;99.90;;;;;;5019480;28;20487;-70
2022/10/02 10:33:18;;;;;;;23.95;3.33;;;16.20;99.90;;;;;;5036933;28;20041;-70
2022/10/02 10:38:31;;;;;;;18.33;3.17;;;16.30;99.90;;;;;;5018013;28;20380;-70
2022/10/02 10:39:30;;;;;;;19.33;2.83;;;16.40;99.90;;;;;;5036612;28;20052;-70
2022/10/02 10:41:58;;;;;;;;;;;16.50;99.90;;;;;;5035880;28;20064;-71
2022/10/02 10:44:46;;;;;;;;;;;16.60;99.90;;;;;;5037305;28;19921;-70
2022/10/02 10:47:40;;;;;;;18.30;3.10;;;16.60;99.90;;;;;;5037143;28;20271;-70
2022/10/02 10:50:37;;;;;;;19.60;3.25;;;16.70;99.90;;;;;;5019446;28;20360;-71
2022/10/02 10:53:12;;;;;;;17.73;2.80;;;16.80;99.90;;;;;;5036654;28;20052;-71
2022/10/02 10:56:18;;;;;;;22.23;3.40;;;16.90;99.90;;;;;;5035133;28;20360;-71
2022/10/02 10:59:05;;;;;;;17.60;3.22;;;17.10;99.90;;;;;;5036172;28;20452;-71
2022/10/02 11:01:59;;;;;;;20.23;3.30;;;17.20;99.90;;;;;;5035452;28;20049;-70
2022/10/02 11:04:49;;;;;;;20.92;3.38;;;17.30;99.90;;;;;;5035854;28;20064;-69
2022/10/02 11:07:49;;;;;;;14.68;2.92;;;17.30;99.90;;;;;;5018973;28;20475;-69
2022/10/02 11:10:32;;;;;;;19.52;3.45;;;17.30;99.90;;;;;;5035891;28;20495;-69
2022/10/02 11:13:04;;;;;;;17.98;3.03;;;17.40;99.90;;;;;;5036024;28;20060;-69
2022/10/02 11:16:12;;;;;;;18.25;3.13;;;17.40;99.90;;;;;;5035149;28;20066;-70
2022/10/02 11:18:46;;;;;;;;;;;17.40;99.90;;;;;;5002534;28;20064;-70
2022/10/02 11:21:30;;;;;;;16.52;3.03;;;17.30;99.90;;;;;;5035003;28;19928;-70
2022/10/02 11:24:00;;;;;;;15.52;3.05;;;17.30;99.90;;;;;;5035757;28;20360;-70
2022/10/02 11:26:38;;;;;;;21.20;3.20;;;17.10;99.90;;;;;;5035856;28;20064;-70
2022/10/02 11:29:33;;;;;;;;;;;16.90;99.90;;;;;;5034958;28;20052;-70
2022/10/02 11:32:53;;;;;;;19.98;2.95;;;16.70;99.90;;;;;;5035604;28;19921;-70
2022/10/02 11:35:43;;;;;;;15.18;2.95;;;16.60;99.90;;;;;;4959996;28;20057;-70
2022/10/02 11:38:37;;;;;;;14.75;2.97;;;16.60;99.90;;;;;;5035594;28;20053;-70
2022/10/02 11:41:06;;;;;;;16.73;3.38;;;16.50;99.90;;;;;;5034223;28;20053;-70
2022/10/02 11:44:03;;;;;;;13.68;3.10;;;16.60;99.90;;;;;;5001509;28;20083;-71
2022/10/02 11:47:28;;;;;;;22.60;3.20;;;16.70;99.90;;;;;;5018574;28;20522;-71
2022/10/02 11:50:09;;;;;;;16.83;2.83;;;16.70;99.90;;;;;;4955819;29;20507;-70
2022/10/02 11:53:14;;;;;;;19.05;2.90;;;16.60;99.90;;;;;;4955750;29;20058;-70
2022/10/02 11:56:07;;;;;;;15.23;2.70;;;16.40;99.90;;;;;;5031212;28;20057;-70
2022/10/02 11:59:02;;;;;;;17.90;2.80;;;16.40;99.80;;;;;;5035423;28;20042;-70
2022/10/02 12:02:04;;;;;;;13.98;2.92;;;16.30;99.90;;;;;;5034026;28;20452;-71
2022/10/02 12:04:31;;;;;;;17.42;2.88;;;16.30;99.60;;;;;;5040232;28;20053;-70
2022/10/02 12:07:16;;;;;;;13.07;2.80;;;16.30;99.40;;;;;;5053939;28;20529;-71
2022/10/02 12:09:59;;;;;;;14.32;2.72;;;16.30;99.70;;;;;;5053692;28;20052;-70
2022/10/02 12:12:36;;;;;;;17.48;2.75;;;16.40;99.10;;;;;;5054249;28;20456;-70
2022/10/02 12:15:21;;;;;;;13.80;2.70;;;16.40;98.60;;;;;;5053076;28;20037;-70
2022/10/02 12:18:14;;;;;;;13.05;2.30;;;16.40;98.30;;;;;;5054934;28;20478;-70
2022/10/02 12:27:01;;;;;;;14.65;2.72;;;16.40;97.30;;;;;;5053949;28;20052;-70
2022/10/02 12:29:49;;;;;;;17.15;3.08;;;16.40;97.40;;;;;;5053567;28;20060;-71
2022/10/02 12:32:37;;;;;;;16.77;2.63;;;16.40;96.70;;;;;;5054732;28;20060;-70
2022/10/02 12:35:19;;;;;;;13.35;2.85;;;16.40;96.70;;;;;;5053670;28;20037;-70
2022/10/02 12:38:15;;;;;;;19.35;3.22;;;16.40;96.60;;;;;;5053897;28;20049;-70
2022/10/02 12:40:57;;;;;;;16.42;2.78;;;16.50;96.40;;;;;;5054550;28;20060;-70
2022/10/02 12:43:28;;;;;;;14.77;2.50;;;16.50;96.50;;;;;;5054415;28;20060;-70
2022/10/02 12:46:23;;;;;;;15.95;2.50;;;16.50;95.60;;;;;;5054323;28;20464;-71
2022/10/02 12:49:00;;;;;;;15.93;2.90;;;16.60;95.60;;;;;;5052739;28;20464;-70
2022/10/02 12:51:59;;;;;;;14.23;3.00;;;16.60;95.70;;;;;;5058715;28;20040;-70
2022/10/02 12:55:07;;;;;;;13.63;2.80;;;16.70;95.50;;;;;;5026985;28;20056;-70
2022/10/02 12:57:55;;;;;;;12.70;2.50;;;16.70;95.30;;;;;;5058595;28;20041;-70
2022/10/02 13:00:29;;;;;;;16.55;2.63;;;16.70;95.70;;;;;;5057648;28;20052;-71
2022/10/02 13:03:19;;;;;;;18.33;4.85;;;16.80;95.10;;;;;;5057121;28;20456;-70
2022/10/02 13:06:32;;;;;;;14.32;3.50;;;16.90;94.90;;;;;;5024626;28;20056;-70
2022/10/02 13:09:03;;;;;;;12.10;2.67;;;16.90;94.00;;;;;;5010758;28;20060;-70
2022/10/02 13:11:53;;;;;;;16.67;2.65;;;17.00;94.10;;;;;;5058617;28;20051;-70
2022/10/02 13:14:28;;;;;;;13.57;2.50;;;17.10;93.90;;;;;;5056899;28;20216;-71
2022/10/02 13:17:13;;;;;;;14.93;2.88;;;17.10;93.90;;;;;;5054010;28;20053;-70
2022/10/02 13:20:19;;;;;;;17.55;2.75;;;17.20;93.60;;;;;;5038634;28;20457;-70
2022/10/02 13:23:05;;;;;;;14.93;3.15;;;17.20;93.50;;;;;;5036888;28;20125;-70
2022/10/02 13:25:43;;;;;;;13.45;2.35;;;17.30;93.60;;;;;;5037817;28;20053;-70
2022/10/02 13:28:35;;;;;;;14.90;2.92;;;17.30;92.70;;;;;;5037100;28;20049;-71
2022/10/02 13:31:11;;;;;;;11.70;2.67;;;17.40;92.90;;;;;;5021138;28;20475;-70
2022/10/02 13:34:05;;;;;;;13.23;2.53;;;17.40;92.10;;;;;;5037763;28;20056;-70
2022/10/02 13:36:55;;;;;;;14.52;2.50;;;17.50;92.00;;;;;;5038306;28;20049;-70
2022/10/02 13:40:01;;;;;;;12.98;2.72;;;17.50;91.90;;;;;;5038643;28;20055;-71
2022/10/02 13:42:37;;;;;;;12.25;2.20;;;17.50;91.90;;;;;;5049534;28;20037;-72
2022/10/02 13:45:14;;;;;;;15.98;3.10;;;17.50;91.40;;;;;;5056201;28;20376;-72
2022/10/02 13:47:46;;;;;;;16.02;2.80;;;17.60;91.60;;;;;;5035620;28;20301;-71
2022/10/02 13:50:34;;;;;;;13.30;2.42;;;17.80;91.90;;;;;;5036655;28;20380;-71
2022/10/02 13:53:29;;;;;;;14.57;2.65;;;18.00;91.90;;;;;;5053587;28;20444;-73
2022/10/02 13:56:16;;;;;;;12.63;2.58;;;18.30;90.80;;;;;;5053460;28;20052;-71
2022/10/02 13:59:05;;;;;;;12.55;2.70;;;18.70;90.70;;;;;;5043996;28;20037;-69
2022/10/02 14:01:54;;;;;;;8.77;2.40;;;19.20;90.50;;;;;;5049741;28;20452;-69
2022/10/02 14:04:49;;;;;;;14.70;2.47;;;19.90;90.10;;;;;;5047485;28;20384;-71
2022/10/02 14:07:31;;;;;;;12.50;2.45;;;20.60;89.00;;;;;;5036970;28;20052;-72
2022/10/02 14:10:21;;;;;;;10.02;2.40;;;21.30;87.50;;;;;;5026182;28;20042;-71
2022/10/02 14:12:51;;;;;;;10.25;2.42;;;21.80;86.90;;;;;;5017375;28;20050;-70
2022/10/02 14:15:55;;;;;;;12.13;2.50;;;22.40;84.70;;;;;;4999182;28;20050;-71
2022/10/02 14:18:41;;;;;;;12.60;2.75;;;22.80;80.20;;;;;;5017089;28;20480;-71